createdAt,value
2018-09-07T00:02:01.196Z,13.77
2018-09-07T00:04:28.692Z,14.20
2018-09-07T00:06:56.252Z,16.40
2018-09-07T00:09:23.766Z,13.70
2018-09-07T00:11:51.236Z,13.67
2018-09-07T00:14:18.722Z,14.30
2018-09-07T00:16:46.120Z,14.77
2018-09-07T00:19:13.771Z,13.50
2018-09-07T00:21:41.237Z,13.80
2018-09-07T00:24:08.782Z,14.10
2018-09-07T00:26:36.222Z,14.60
2018-09-07T00:29:03.680Z,14.17
2018-09-07T00:31:31.072Z,15.17
2018-09-07T00:33:58.710Z,14.13
2018-09-07T00:36:26.119Z,14.80
2018-09-07T00:38:53.550Z,15.77
2018-09-07T00:41:21.083Z,15.73
2018-09-07T00:43:48.563Z,14.47
2018-09-07T00:46:15.962Z,15.00
2018-09-07T00:48:43.551Z,15.67
2018-09-07T00:51:10.980Z,15.20
2018-09-07T00:53:38.419Z,15.90
2018-09-07T00:56:05.924Z,15.50
2018-09-07T00:58:33.344Z,15.33
2018-09-07T01:01:00.740Z,16.00
2018-09-07T01:03:28.472Z,16.30
2018-09-07T01:05:55.850Z,15.97
2018-09-07T01:08:23.260Z,16.53
2018-09-07T01:10:50.739Z,16.27
2018-09-07T01:13:18.171Z,17.20
2018-09-07T01:15:45.623Z,15.93
2018-09-07T01:18:13.100Z,16.37
2018-09-07T01:20:40.558Z,16.63
2018-09-07T01:23:07.971Z,17.00
2018-09-07T01:25:35.459Z,17.67
2018-09-07T01:28:02.965Z,18.20
2018-09-07T01:30:30.433Z,17.73
2018-09-07T01:32:58.458Z,18.00
2018-09-07T01:35:26.733Z,17.77
2018-09-07T01:39:01.046Z,17.23
2018-09-07T01:41:28.430Z,17.23
2018-09-07T01:43:55.880Z,17.30
2018-09-07T01:46:23.347Z,18.77
2018-09-07T01:48:50.747Z,18.27
2018-09-07T01:51:18.187Z,17.33
2018-09-07T01:53:45.588Z,16.73
2018-09-07T01:56:13.065Z,17.93
2018-09-07T01:58:40.509Z,17.80
2018-09-07T02:01:10.775Z,18.33
2018-09-07T02:03:38.236Z,18.63
2018-09-07T02:06:05.693Z,19.57
2018-09-07T02:08:33.122Z,19.20
2018-09-07T02:11:00.703Z,19.23
2018-09-07T02:13:29.342Z,18.03
2018-09-07T02:15:56.950Z,17.83
2018-09-07T02:18:25.605Z,17.53
2018-09-07T02:20:53.125Z,18.60
2018-09-07T02:23:20.735Z,18.53
2018-09-07T02:25:48.171Z,19.23
2018-09-07T02:28:15.589Z,18.53
2018-09-07T02:30:43.407Z,18.97
2018-09-07T02:33:10.818Z,18.07
2018-09-07T02:35:38.522Z,19.20
2018-09-07T02:38:05.942Z,19.20
2018-09-07T02:40:33.374Z,18.27
2018-09-07T02:43:00.841Z,18.53
2018-09-07T02:45:28.283Z,19.53
2018-09-07T02:47:55.677Z,19.87
2018-09-07T02:50:23.128Z,19.30
2018-09-07T02:52:50.552Z,19.60
2018-09-07T02:55:18.059Z,19.27
2018-09-07T02:57:45.488Z,20.43
2018-09-07T03:00:13.162Z,19.97
2018-09-07T03:02:40.567Z,19.63
2018-09-07T03:05:08.129Z,19.50
2018-09-07T03:07:35.559Z,20.10
2018-09-07T03:10:03.376Z,19.10
2018-09-07T03:12:30.808Z,20.50
2018-09-07T03:14:58.287Z,19.87
2018-09-07T03:17:25.685Z,19.97
2018-09-07T03:19:53.219Z,20.53
2018-09-07T03:22:20.665Z,21.70
2018-09-07T03:24:48.164Z,20.20
2018-09-07T03:27:15.594Z,20.07
2018-09-07T03:29:42.996Z,20.57
2018-09-07T03:32:10.560Z,20.00
2018-09-07T03:34:37.969Z,20.97
2018-09-07T03:37:05.412Z,21.17
2018-09-07T03:39:32.842Z,19.57
2018-09-07T03:42:00.292Z,19.83
2018-09-07T03:44:27.707Z,20.90
2018-09-07T03:46:55.137Z,21.23
2018-09-07T03:49:22.554Z,20.07
2018-09-07T03:51:49.995Z,20.10
2018-09-07T03:54:17.377Z,20.00
2018-09-07T03:56:44.846Z,24.37
2018-09-07T03:59:12.279Z,23.10
2018-09-07T04:01:39.726Z,20.47
2018-09-07T04:04:07.114Z,21.60
2018-09-07T04:06:34.764Z,21.30
2018-09-07T04:09:02.492Z,22.17
2018-09-07T04:11:29.952Z,23.10
2018-09-07T04:13:57.330Z,22.63
2018-09-07T04:16:24.822Z,20.83
2018-09-07T04:18:52.214Z,20.43
2018-09-07T04:21:19.738Z,21.40
2018-09-07T04:23:47.123Z,21.07
2018-09-07T04:26:14.679Z,21.70
2018-09-07T04:28:42.085Z,22.97
2018-09-07T04:31:09.523Z,21.93
2018-09-07T04:33:36.943Z,21.63
2018-09-07T04:36:04.326Z,21.67
2018-09-07T04:38:31.808Z,21.73
2018-09-07T04:40:59.311Z,20.50
2018-09-07T04:43:26.725Z,22.50
2018-09-07T04:45:54.228Z,22.70
2018-09-07T04:48:21.750Z,22.00
2018-09-07T04:50:49.118Z,22.70
2018-09-07T04:53:17.211Z,23.00
2018-09-07T04:55:44.605Z,21.17
2018-09-07T04:58:12.046Z,22.00
2018-09-07T05:00:39.465Z,22.80
2018-09-07T05:03:06.934Z,21.60
2018-09-07T05:05:34.324Z,23.50
2018-09-07T05:08:01.765Z,22.40
2018-09-07T05:10:29.166Z,21.50
2018-09-07T05:12:56.739Z,22.93
2018-09-07T05:15:24.322Z,23.93
2018-09-07T05:17:51.739Z,23.03
2018-09-07T05:20:19.144Z,23.30
2018-09-07T05:22:46.580Z,22.57
2018-09-07T05:25:14.043Z,21.77
2018-09-07T05:27:41.604Z,23.83
2018-09-07T05:30:09.036Z,21.70
2018-09-07T05:32:36.471Z,22.90
2018-09-07T05:35:04.074Z,23.27
2018-09-07T05:37:31.504Z,22.00
2018-09-07T05:39:58.906Z,23.70
2018-09-07T05:42:26.365Z,23.60
2018-09-07T05:44:53.899Z,24.27
2018-09-07T05:47:21.340Z,23.43
2018-09-07T05:49:48.837Z,25.70
2018-09-07T05:52:16.243Z,23.60
2018-09-07T05:54:43.659Z,24.07
2018-09-07T05:57:11.080Z,26.13
2018-09-07T05:59:38.574Z,23.20
2018-09-07T06:02:06.299Z,26.33
2018-09-07T06:04:33.755Z,23.80
2018-09-07T06:07:01.240Z,24.40
2018-09-07T06:09:28.723Z,24.57
2018-09-07T06:11:56.347Z,24.60
2018-09-07T06:14:23.832Z,22.77
2018-09-07T06:16:51.265Z,24.90
2018-09-07T06:19:18.718Z,24.93
2018-09-07T06:21:46.130Z,27.40
2018-09-07T06:24:13.575Z,25.20
2018-09-07T06:26:40.974Z,26.00
2018-09-07T06:29:08.422Z,27.17
2018-09-07T06:31:35.830Z,26.30
2018-09-07T06:34:03.290Z,26.10
2018-09-07T06:36:30.691Z,26.47
2018-09-07T06:38:58.171Z,27.60
2018-09-07T06:41:25.569Z,25.57
2018-09-07T06:43:52.981Z,25.70
2018-09-07T06:46:20.418Z,25.33
2018-09-07T06:48:47.912Z,25.87
2018-09-07T06:51:15.295Z,24.27
2018-09-07T06:53:42.783Z,24.33
2018-09-07T06:56:10.167Z,25.50
2018-09-07T06:58:37.619Z,25.77
2018-09-07T07:01:05.032Z,25.37
2018-09-07T07:03:32.455Z,27.10
2018-09-07T07:05:59.856Z,26.80
2018-09-07T07:08:27.567Z,25.90
2018-09-07T07:10:54.946Z,26.87
2018-09-07T07:13:22.364Z,25.47
2018-09-07T07:15:49.785Z,26.43
2018-09-07T07:18:17.228Z,27.43
2018-09-07T07:20:44.679Z,26.53
2018-09-07T07:23:12.096Z,26.93
2018-09-07T07:25:39.706Z,27.30
2018-09-07T07:28:07.115Z,28.70
2018-09-07T07:30:34.518Z,29.67
2018-09-07T07:33:01.937Z,29.50
2018-09-07T07:35:29.342Z,31.23
2018-09-07T07:37:56.740Z,33.00
2018-09-07T07:40:24.156Z,32.10
2018-09-07T07:42:51.554Z,33.60
2018-09-07T07:45:18.979Z,30.67
2018-09-07T07:47:46.442Z,33.50
2018-09-07T07:50:13.819Z,33.90
2018-09-07T07:52:41.221Z,34.47
2018-09-07T07:55:08.629Z,35.43
2018-09-07T07:57:36.048Z,36.13
2018-09-07T08:00:04.136Z,38.10
2018-09-07T08:02:31.540Z,37.43
2018-09-07T08:04:58.946Z,39.20
2018-09-07T08:07:26.337Z,42.57
2018-09-07T08:09:53.900Z,44.70
2018-09-07T08:12:21.353Z,47.77
2018-09-07T08:14:48.846Z,56.43
2018-09-07T08:17:16.246Z,51.93
2018-09-07T08:19:43.696Z,54.10
2018-09-07T08:22:11.108Z,53.00
2018-09-07T08:24:38.562Z,52.90
2018-09-07T08:27:06.155Z,52.57
2018-09-07T08:29:33.577Z,51.83
2018-09-07T08:32:01.017Z,50.67
2018-09-07T08:34:28.584Z,52.47
2018-09-07T08:36:56.072Z,55.27
2018-09-07T08:39:23.509Z,57.87
2018-09-07T08:41:50.959Z,52.67
2018-09-07T08:44:18.532Z,55.30
2018-09-07T08:46:45.962Z,59.60
2018-09-07T08:49:13.376Z,53.40
2018-09-07T08:51:40.815Z,55.53
2018-09-07T08:54:08.218Z,54.73
2018-09-07T08:56:35.641Z,55.30
2018-09-07T08:59:03.116Z,57.30
2018-09-07T09:01:30.827Z,56.17
2018-09-07T09:03:58.214Z,55.00
2018-09-07T09:06:25.715Z,55.57
2018-09-07T09:08:53.084Z,53.97
2018-09-07T09:11:20.515Z,55.40
2018-09-07T09:13:47.893Z,51.97
2018-09-07T09:16:15.343Z,55.17
2018-09-07T09:18:42.909Z,54.07
2018-09-07T09:21:10.348Z,52.10
2018-09-07T09:23:37.820Z,52.63
2018-09-07T09:26:05.261Z,49.57
2018-09-07T09:28:32.745Z,45.17
2018-09-07T09:31:00.203Z,45.37
2018-09-07T09:33:27.611Z,43.63
2018-09-07T09:35:55.093Z,39.80
2018-09-07T09:38:22.481Z,41.53
2018-09-07T09:40:49.895Z,40.03
2018-09-07T09:43:17.279Z,35.27
2018-09-07T09:45:44.855Z,32.53
2018-09-07T09:48:12.340Z,31.63
2018-09-07T09:50:39.755Z,30.10
2018-09-07T09:53:07.242Z,30.73
2018-09-07T09:55:34.583Z,29.03
2018-09-07T09:58:02.002Z,27.20
2018-09-07T10:00:35.232Z,27.10
2018-09-07T10:03:08.834Z,29.70
2018-09-07T10:05:36.358Z,30.53
2018-09-07T10:08:03.793Z,30.90
2018-09-07T10:10:31.188Z,31.23
2018-09-07T10:12:58.598Z,29.57
2018-09-07T10:15:25.980Z,27.10
2018-09-07T10:17:53.401Z,19.83
2018-09-07T10:20:20.782Z,18.63
2018-09-07T10:22:48.367Z,17.43
2018-09-07T10:25:15.749Z,17.40
2018-09-07T10:27:43.207Z,16.77
2018-09-07T10:30:10.600Z,13.10
2018-09-07T10:32:38.186Z,10.63
2018-09-07T10:35:05.626Z,10.10
2018-09-07T10:37:33.089Z,12.63
2018-09-07T10:40:00.760Z,13.03
2018-09-07T10:42:28.194Z,12.30
2018-09-07T10:44:55.589Z,12.00
2018-09-07T10:47:23.128Z,10.90
2018-09-07T10:49:50.557Z,11.20
2018-09-07T10:52:17.962Z,10.57
2018-09-07T10:54:45.376Z,8.70
2018-09-07T10:57:12.802Z,10.63
2018-09-07T10:59:40.335Z,9.27
2018-09-07T11:02:07.640Z,8.77
2018-09-07T11:04:35.339Z,8.33
2018-09-07T11:07:02.752Z,7.53
2018-09-07T11:09:30.224Z,7.93
2018-09-07T11:11:57.642Z,7.83
2018-09-07T11:14:25.196Z,8.93
2018-09-07T11:16:52.622Z,8.67
2018-09-07T11:19:20.030Z,8.93
2018-09-07T11:21:47.428Z,7.80
2018-09-07T11:24:14.844Z,8.20
2018-09-07T11:26:42.251Z,7.50
2018-09-07T11:29:09.664Z,8.17
2018-09-07T11:31:37.060Z,7.80
2018-09-07T11:34:04.500Z,7.40
2018-09-07T11:36:31.922Z,8.57
2018-09-07T11:38:59.355Z,8.43
2018-09-07T11:41:26.810Z,7.97
2018-09-07T11:43:54.422Z,7.70
2018-09-07T11:46:22.522Z,7.93
2018-09-07T11:48:50.244Z,9.33
2018-09-07T11:51:17.650Z,7.63
2018-09-07T11:53:45.095Z,7.87
2018-09-07T11:56:12.496Z,6.60
2018-09-07T11:58:39.899Z,5.17
2018-09-07T12:01:07.541Z,6.40
2018-09-07T12:03:34.920Z,6.00
2018-09-07T12:06:02.327Z,5.50
2018-09-07T12:08:29.725Z,4.83
2018-09-07T12:10:57.151Z,5.07
2018-09-07T12:13:24.624Z,4.60
2018-09-07T12:15:51.980Z,4.73
2018-09-07T12:18:19.358Z,5.03
2018-09-07T12:20:46.778Z,3.97
2018-09-07T12:23:14.237Z,4.40
2018-09-07T12:25:41.699Z,4.87
2018-09-07T12:28:09.312Z,4.27
2018-09-07T12:30:36.772Z,4.07
2018-09-07T12:33:07.016Z,4.47
2018-09-07T12:35:34.483Z,4.50
2018-09-07T12:38:02.847Z,4.47
2018-09-07T12:40:30.955Z,3.70
2018-09-07T12:43:00.664Z,4.70
2018-09-07T12:45:28.140Z,5.10
2018-09-07T12:47:55.613Z,4.63
2018-09-07T12:50:23.324Z,4.57
2018-09-07T12:52:50.827Z,4.07
2018-09-07T12:55:18.290Z,3.90
2018-09-07T12:57:45.672Z,4.07
2018-09-07T13:00:13.387Z,3.60
2018-09-07T13:02:40.760Z,4.13
2018-09-07T13:05:08.252Z,3.60
2018-09-07T13:07:35.700Z,4.30
2018-09-07T13:10:03.220Z,4.07
2018-09-07T13:12:30.654Z,4.30
2018-09-07T13:14:58.076Z,3.70
2018-09-07T13:17:25.459Z,3.33
2018-09-07T13:19:52.926Z,3.60
2018-09-07T13:22:20.321Z,4.00
2018-09-07T13:24:47.779Z,5.00
2018-09-07T13:27:15.165Z,3.87
2018-09-07T13:29:42.580Z,4.07
2018-09-07T13:32:10.022Z,3.63
2018-09-07T13:34:37.448Z,3.77
2018-09-07T13:37:04.996Z,4.47
2018-09-07T13:39:32.443Z,3.83
2018-09-07T13:41:59.878Z,3.90
2018-09-07T13:44:27.289Z,5.50
2018-09-07T13:46:54.722Z,4.40
2018-09-07T13:49:22.122Z,4.20
2018-09-07T13:51:49.542Z,4.50
2018-09-07T13:54:16.952Z,4.40
2018-09-07T13:56:44.379Z,4.17
2018-09-07T13:59:11.788Z,4.40
2018-09-07T14:01:39.342Z,4.00
2018-09-07T14:04:06.671Z,4.10
2018-09-07T14:06:34.072Z,4.17
2018-09-07T14:09:01.660Z,4.20
2018-09-07T14:11:29.085Z,3.60
2018-09-07T14:13:56.469Z,5.30
2018-09-07T14:16:23.989Z,4.23
2018-09-07T14:18:51.302Z,4.10
2018-09-07T14:21:18.720Z,5.70
2018-09-07T14:23:46.220Z,4.17
2018-09-07T14:26:19.502Z,3.70
2018-09-07T14:28:46.935Z,3.83
2018-09-07T14:31:14.396Z,4.00
2018-09-07T14:33:41.773Z,4.20
2018-09-07T14:36:09.236Z,4.13
2018-09-07T14:38:36.631Z,4.20
2018-09-07T14:41:04.096Z,4.50
2018-09-07T14:43:31.476Z,4.30
2018-09-07T14:45:58.902Z,5.10
2018-09-07T14:48:26.455Z,5.30
2018-09-07T14:50:53.914Z,4.90
2018-09-07T14:53:21.323Z,5.00
2018-09-07T14:55:48.752Z,5.60
2018-09-07T14:58:16.285Z,5.00
2018-09-07T15:00:43.720Z,5.67
2018-09-07T15:03:11.149Z,5.37
2018-09-07T15:05:38.654Z,5.53
2018-09-07T15:08:06.099Z,6.07
2018-09-07T15:10:33.515Z,5.70
2018-09-07T15:13:01.086Z,6.50
2018-09-07T15:15:28.580Z,6.63
2018-09-07T15:17:56.019Z,9.00
2018-09-07T15:20:23.407Z,8.20
2018-09-07T15:22:50.867Z,9.50
2018-09-07T15:25:18.287Z,8.60
2018-09-07T15:27:45.713Z,9.03
2018-09-07T15:30:13.122Z,9.50
2018-09-07T15:32:40.564Z,11.60
2018-09-07T15:35:07.987Z,10.97
2018-09-07T15:37:35.409Z,10.57
2018-09-07T15:40:02.947Z,11.77
2018-09-07T15:42:30.368Z,12.37
2018-09-07T15:44:57.828Z,12.67
2018-09-07T15:47:25.307Z,11.53
2018-09-07T15:49:52.722Z,11.90
2018-09-07T15:52:20.236Z,11.67
2018-09-07T15:54:47.647Z,8.13
2018-09-07T15:57:15.055Z,8.87
2018-09-07T15:59:42.432Z,9.00
2018-09-07T16:02:09.883Z,8.10
2018-09-07T16:04:37.302Z,8.70
2018-09-07T16:07:04.808Z,9.30
2018-09-07T16:09:32.239Z,8.67
2018-09-07T16:11:59.671Z,8.90
2018-09-07T16:14:27.076Z,9.67
2018-09-07T16:16:54.511Z,9.37
2018-09-07T16:19:21.944Z,10.40
2018-09-07T16:21:49.349Z,9.67
2018-09-07T16:24:16.783Z,10.63
2018-09-07T16:26:44.247Z,9.53
2018-09-07T16:29:11.683Z,10.63
2018-09-07T16:31:39.140Z,12.23
2018-09-07T16:34:06.559Z,11.83
2018-09-07T16:36:34.124Z,14.10
2018-09-07T16:39:02.495Z,14.70
2018-09-07T16:41:29.965Z,14.73
2018-09-07T16:43:57.409Z,13.97
2018-09-07T16:46:24.826Z,14.40
2018-09-07T16:48:52.343Z,13.03
2018-09-07T16:51:19.789Z,10.90
2018-09-07T16:53:47.217Z,9.20
2018-09-07T16:56:14.603Z,7.07
2018-09-07T16:58:42.075Z,6.33
2018-09-07T17:01:10.345Z,6.57
2018-09-07T17:03:37.791Z,5.97
2018-09-07T17:06:05.240Z,6.90
2018-09-07T17:08:32.663Z,6.87
2018-09-07T17:11:00.071Z,6.50
2018-09-07T17:13:27.498Z,6.93
2018-09-07T17:15:54.948Z,7.60
2018-09-07T17:18:22.630Z,6.67
2018-09-07T17:20:50.086Z,6.80
2018-09-07T17:23:17.504Z,7.33
2018-09-07T17:25:44.908Z,7.47
2018-09-07T17:28:12.305Z,7.20
2018-09-07T17:30:39.813Z,7.67
2018-09-07T17:33:07.398Z,7.80
2018-09-07T17:35:34.775Z,7.40
2018-09-07T17:38:02.178Z,7.60
2018-09-07T17:40:29.685Z,7.70
2018-09-07T17:42:57.134Z,7.90
2018-09-07T17:45:24.718Z,8.00
2018-09-07T17:47:52.087Z,8.73
2018-09-07T17:50:19.679Z,7.17
2018-09-07T17:52:48.147Z,7.87
2018-09-07T17:55:15.632Z,9.10
2018-09-07T17:57:44.959Z,7.67
2018-09-07T18:00:12.772Z,7.27
2018-09-07T18:02:40.171Z,8.13
2018-09-07T18:05:12.298Z,8.10
2018-09-07T18:07:39.687Z,9.93
2018-09-07T18:10:07.089Z,9.73
2018-09-07T18:12:34.566Z,9.40
2018-09-07T18:15:02.001Z,8.93
2018-09-07T18:17:29.390Z,9.80
2018-09-07T18:19:56.800Z,8.83
2018-09-07T18:22:25.079Z,9.63
2018-09-07T18:24:52.760Z,8.57
2018-09-07T18:27:20.166Z,7.87
2018-09-07T18:29:47.614Z,8.53
2018-09-07T18:32:15.046Z,7.57
2018-09-07T18:34:42.556Z,6.77
2018-09-07T18:37:09.858Z,7.00
2018-09-07T18:39:37.279Z,6.17
2018-09-07T18:42:04.621Z,5.57
2018-09-07T18:44:32.052Z,5.37
2018-09-07T18:46:59.612Z,5.23
2018-09-07T18:49:27.028Z,5.83
2018-09-07T18:51:54.450Z,4.83
2018-09-07T18:54:21.865Z,6.63
2018-09-07T18:56:49.329Z,7.20
2018-09-07T18:59:16.740Z,4.90
2018-09-07T19:01:44.119Z,4.50
2018-09-07T19:04:11.668Z,4.23
2018-09-07T19:06:39.064Z,4.47
2018-09-07T19:09:06.659Z,4.70
2018-09-07T19:11:34.094Z,4.47
2018-09-07T19:14:01.537Z,4.70
2018-09-07T19:16:28.950Z,4.13
2018-09-07T19:18:56.372Z,4.80
2018-09-07T19:21:23.763Z,4.20
2018-09-07T19:23:51.258Z,4.53
2018-09-07T19:26:18.654Z,5.03
2018-09-07T19:28:46.069Z,4.00
2018-09-07T19:31:13.545Z,4.77
2018-09-07T19:33:40.971Z,4.03
2018-09-07T19:36:08.433Z,4.63
2018-09-07T19:38:35.834Z,4.10
2018-09-07T19:41:03.295Z,4.30
2018-09-07T19:43:30.668Z,4.63
2018-09-07T19:45:58.141Z,4.33
2018-09-07T19:48:25.607Z,4.83
2018-09-07T19:50:53.032Z,4.70
2018-09-07T19:53:20.456Z,5.00
2018-09-07T19:55:47.954Z,5.17
2018-09-07T19:58:15.388Z,5.23
2018-09-07T20:00:43.427Z,5.50
2018-09-07T20:03:10.858Z,5.67
2018-09-07T20:05:38.336Z,6.53
2018-09-07T20:08:05.725Z,5.40
2018-09-07T20:10:33.184Z,5.10
2018-09-07T20:13:00.575Z,5.70
2018-09-07T20:15:28.098Z,5.37
2018-09-07T20:17:55.485Z,5.37
2018-09-07T20:20:22.908Z,4.37
2018-09-07T20:22:50.322Z,4.67
2018-09-07T20:25:17.780Z,4.13
2018-09-07T20:27:45.276Z,3.93
2018-09-07T20:30:12.708Z,4.40
2018-09-07T20:32:40.197Z,4.33
2018-09-07T20:35:07.631Z,4.47
2018-09-07T20:37:35.030Z,3.90
2018-09-07T20:40:02.517Z,4.10
2018-09-07T20:42:29.949Z,4.77
2018-09-07T20:44:57.372Z,3.90
2018-09-07T20:47:24.929Z,4.47
2018-09-07T20:49:52.328Z,4.20
2018-09-07T20:52:19.737Z,4.20
2018-09-07T20:54:47.250Z,4.73
2018-09-07T20:57:14.672Z,4.10
2018-09-07T20:59:42.062Z,4.30
2018-09-07T21:02:09.513Z,4.43
2018-09-07T21:04:36.921Z,4.53
2018-09-07T21:07:04.495Z,3.50
2018-09-07T21:09:31.908Z,4.10
2018-09-07T21:11:59.311Z,5.27
2018-09-07T21:14:26.684Z,4.60
2018-09-07T21:16:54.302Z,4.60
2018-09-07T21:19:21.711Z,4.57
2018-09-07T21:21:49.128Z,7.07
2018-09-07T21:24:16.523Z,4.87
2018-09-07T21:26:43.927Z,4.97
2018-09-07T21:29:11.686Z,4.67
2018-09-07T21:31:39.255Z,6.27
2018-09-07T21:34:06.651Z,5.17
2018-09-07T21:36:34.062Z,5.73
2018-09-07T21:39:02.088Z,6.10
2018-09-07T21:41:29.516Z,6.60
2018-09-07T21:43:56.919Z,7.40
2018-09-07T21:46:24.363Z,6.63
2018-09-07T21:48:51.739Z,6.63
2018-09-07T21:51:19.155Z,7.13
2018-09-07T21:53:46.672Z,6.10
2018-09-07T21:56:14.073Z,6.90
2018-09-07T21:58:41.492Z,7.53
2018-09-07T22:01:12.733Z,7.50
2018-09-07T22:03:40.288Z,7.70
2018-09-07T22:06:09.265Z,7.70
2018-09-07T22:08:37.587Z,6.57
2018-09-07T22:11:05.724Z,7.37
2018-09-07T22:13:33.168Z,7.13
2018-09-07T22:16:00.826Z,7.60
2018-09-07T22:18:28.255Z,7.13
2018-09-07T22:20:55.676Z,7.60
2018-09-07T22:23:23.115Z,7.43
2018-09-07T22:25:50.512Z,7.87
2018-09-07T22:28:17.920Z,7.03
2018-09-07T22:30:45.338Z,7.33
2018-09-07T22:33:12.772Z,7.33
2018-09-07T22:35:40.151Z,7.43
2018-09-07T22:38:07.614Z,8.10
2018-09-07T22:40:35.023Z,8.50
2018-09-07T22:43:02.517Z,7.40
2018-09-07T22:45:29.912Z,8.57
2018-09-07T22:47:57.344Z,8.10
2018-09-07T22:50:25.128Z,7.70
2018-09-07T22:52:52.547Z,7.97
2018-09-07T22:55:19.932Z,7.67
2018-09-07T22:57:47.336Z,7.67
2018-09-07T23:00:14.787Z,8.07
2018-09-07T23:02:42.202Z,7.53
2018-09-07T23:05:09.603Z,7.77
2018-09-07T23:07:40.411Z,6.90
2018-09-07T23:10:07.804Z,8.07
2018-09-07T23:12:35.224Z,7.70
2018-09-07T23:15:02.725Z,8.87
2018-09-07T23:17:30.143Z,8.73
2018-09-07T23:19:57.674Z,8.77
2018-09-07T23:22:25.085Z,8.10
2018-09-07T23:24:52.467Z,8.20
2018-09-07T23:27:19.903Z,8.07
2018-09-07T23:29:47.275Z,8.30
2018-09-07T23:32:14.667Z,8.77
2018-09-07T23:34:42.153Z,8.27
2018-09-07T23:37:09.579Z,7.97
2018-09-07T23:39:37.029Z,9.03
2018-09-07T23:42:04.592Z,7.60
2018-09-07T23:44:32.016Z,9.13
2018-09-07T23:46:59.387Z,7.80
2018-09-07T23:49:26.806Z,8.50
2018-09-07T23:51:54.187Z,9.17
2018-09-07T23:54:21.653Z,9.03
2018-09-07T23:56:49.056Z,8.50
2018-09-07T23:59:16.507Z,8.60
